createdAt,value
2018-11-01T00:02:18.853Z,4.20
2018-11-01T00:07:22.366Z,5.00
2018-11-01T00:12:25.879Z,3.75
2018-11-01T00:17:29.535Z,4.50
2018-11-01T00:22:33.163Z,4.00
2018-11-01T00:27:36.717Z,4.50
2018-11-01T00:32:40.281Z,4.00
2018-11-01T00:37:43.773Z,3.00
2018-11-01T00:42:47.375Z,4.00
2018-11-01T00:47:50.981Z,3.60
2018-11-01T00:52:54.500Z,3.00
2018-11-01T00:57:57.061Z,4.00
2018-11-01T01:03:00.577Z,4.20
2018-11-01T01:08:04.073Z,4.00
2018-11-01T01:13:07.592Z,4.25
2018-11-01T01:18:11.079Z,3.00
2018-11-01T01:23:14.585Z,3.00
2018-11-01T01:28:18.090Z,4.00
2018-11-01T01:33:21.988Z,4.75
2018-11-01T01:38:26.171Z,3.00
2018-11-01T01:43:30.337Z,4.25
2018-11-01T01:48:34.345Z,4.80
2018-11-01T01:53:38.306Z,4.00
2018-11-01T01:58:42.307Z,3.00
2018-11-01T02:03:45.820Z,3.00
2018-11-01T02:08:49.362Z,3.00
2018-11-01T02:13:52.923Z,3.00
2018-11-01T02:18:56.469Z,2.50
2018-11-01T02:24:00.037Z,3.75
2018-11-01T02:29:03.605Z,3.00
2018-11-01T02:34:07.145Z,3.00
2018-11-01T02:39:11.912Z,2.25
2018-11-01T02:44:15.435Z,4.00
2018-11-01T02:49:19.039Z,3.00
2018-11-01T02:54:22.626Z,3.25
2018-11-01T02:59:26.215Z,3.00
2018-11-01T03:04:29.694Z,3.00
2018-11-01T03:09:33.181Z,3.00
2018-11-01T03:14:36.798Z,2.00
2018-11-01T03:19:40.290Z,2.25
2018-11-01T03:24:43.778Z,3.00
2018-11-01T03:29:47.295Z,3.80
2018-11-01T03:34:50.807Z,2.00
2018-11-01T03:39:54.346Z,3.00
2018-11-01T03:44:57.862Z,3.00
2018-11-01T03:50:01.360Z,3.00
2018-11-01T03:55:07.328Z,3.00
2018-11-01T04:00:14.020Z,3.25
2018-11-01T04:05:17.537Z,2.00
2018-11-01T04:10:21.046Z,3.00
2018-11-01T04:15:24.683Z,2.20
2018-11-01T04:20:28.077Z,3.00
2018-11-01T04:25:31.614Z,2.00
2018-11-01T04:30:35.160Z,3.00
2018-11-01T04:35:38.623Z,2.00
2018-11-01T04:40:42.131Z,3.00
2018-11-01T04:45:45.520Z,2.00
2018-11-01T04:50:48.984Z,2.00
2018-11-01T04:55:52.422Z,2.75
2018-11-01T05:00:55.894Z,3.00
2018-11-01T05:05:59.455Z,2.00
2018-11-01T05:11:02.918Z,2.00
2018-11-01T05:16:06.770Z,3.00
2018-11-01T05:21:10.205Z,2.50
2018-11-01T05:26:13.647Z,3.00
2018-11-01T05:31:17.097Z,2.75
2018-11-01T05:36:20.547Z,2.00
2018-11-01T05:41:24.280Z,2.50
2018-11-01T05:46:27.724Z,3.00
2018-11-01T05:51:31.199Z,2.00
2018-11-01T05:56:34.637Z,1.25
2018-11-01T06:01:43.130Z,2.00
2018-11-01T06:06:46.558Z,2.75
2018-11-01T06:11:50.073Z,3.00
2018-11-01T06:16:53.564Z,2.25
2018-11-01T06:21:57.046Z,2.40
2018-11-01T06:27:00.499Z,3.00
2018-11-01T06:32:03.949Z,2.00
2018-11-01T06:37:07.419Z,2.00
2018-11-01T06:42:10.871Z,2.00
2018-11-01T06:47:14.338Z,2.50
2018-11-01T06:52:17.860Z,2.00
2018-11-01T06:57:21.290Z,3.00
2018-11-01T07:02:24.823Z,2.25
2018-11-01T07:07:28.267Z,2.00
2018-11-01T07:12:31.753Z,3.00
2018-11-01T07:17:35.453Z,4.00
2018-11-01T07:22:39.507Z,4.00
2018-11-01T07:27:43.012Z,4.00
2018-11-01T07:32:46.534Z,5.00
2018-11-01T07:37:50.099Z,6.25
2018-11-01T07:42:53.615Z,6.75
2018-11-01T07:47:57.061Z,26.25
2018-11-01T07:53:00.621Z,31.00
2018-11-01T07:58:04.183Z,32.00
2018-11-01T08:03:07.699Z,24.50
2018-11-01T08:08:11.150Z,21.00
2018-11-01T08:13:14.594Z,19.50
2018-11-01T08:18:18.087Z,18.60
2018-11-01T08:23:21.551Z,18.75
2018-11-01T08:28:25.058Z,17.60
2018-11-01T08:33:28.512Z,16.00
2018-11-01T08:38:31.966Z,18.20
2018-11-01T08:43:35.427Z,16.00
2018-11-01T08:48:38.962Z,16.50
2018-11-01T08:53:42.446Z,15.00
2018-11-01T09:26:55.460Z,14.60
2018-11-01T09:31:58.878Z,11.00
2018-11-01T09:37:02.384Z,11.75
2018-11-01T09:42:05.926Z,13.00
2018-11-01T09:47:09.853Z,12.25
2018-11-01T09:52:12.938Z,12.00
2018-11-01T09:57:16.471Z,13.50
2018-11-01T10:02:19.966Z,13.80
2018-11-01T10:07:23.503Z,12.00
2018-11-01T10:12:26.994Z,19.75
2018-11-01T10:17:30.766Z,14.00
2018-11-01T10:22:33.982Z,11.00
2018-11-01T10:27:37.850Z,11.50
2018-11-01T10:32:41.323Z,12.60
2018-11-01T10:37:44.813Z,12.00
2018-11-01T10:42:48.782Z,13.25
2018-11-01T10:47:52.541Z,12.00
2018-11-01T10:52:55.986Z,12.80
2018-11-01T10:57:59.430Z,11.00
2018-11-01T11:03:02.898Z,12.00
2018-11-01T11:08:06.363Z,12.75
2018-11-01T11:13:09.841Z,13.20
2018-11-01T11:18:13.414Z,10.75
2018-11-01T11:23:16.855Z,12.00
2018-11-01T11:28:20.303Z,12.75
2018-11-01T11:33:23.758Z,11.00
2018-11-01T11:38:27.357Z,14.00
2018-11-01T11:43:30.830Z,12.80
2018-11-01T11:48:34.307Z,12.50
2018-11-01T11:53:37.792Z,12.00
2018-11-01T11:58:41.282Z,13.75
2018-11-01T12:03:44.758Z,11.00
2018-11-01T12:08:48.240Z,11.20
2018-11-01T12:13:51.809Z,12.75
2018-11-01T12:18:55.328Z,11.00
2018-11-01T12:23:58.810Z,14.50
2018-11-01T12:29:02.492Z,12.60
2018-11-01T12:34:06.366Z,11.00
2018-11-01T12:39:10.241Z,11.00
2018-11-01T12:44:13.753Z,10.50
2018-11-01T12:49:17.219Z,11.80
2018-11-01T12:54:20.726Z,12.75
2018-11-01T12:59:24.178Z,12.80
2018-11-01T13:04:27.758Z,11.00
2018-11-01T13:09:31.212Z,13.00
2018-11-01T13:14:34.739Z,10.00
2018-11-01T13:19:38.194Z,10.40
2018-11-01T13:24:41.657Z,12.50
2018-11-01T13:29:45.131Z,10.00
2018-11-01T13:34:48.677Z,11.00
2018-11-01T13:39:52.247Z,11.00
2018-11-01T13:44:56.766Z,10.00
2018-11-01T13:50:00.521Z,11.25
2018-11-01T13:55:04.516Z,12.75
2018-11-01T14:00:08.827Z,10.00
2018-11-01T14:05:14.453Z,11.00
2018-11-01T14:10:17.899Z,11.00
2018-11-01T14:15:21.998Z,9.60
2018-11-01T14:20:25.048Z,9.75
2018-11-01T14:25:28.614Z,10.00
2018-11-01T14:30:31.998Z,10.75
2018-11-01T14:35:35.482Z,12.50
2018-11-01T14:40:38.957Z,9.60
2018-11-01T14:45:42.457Z,9.25
2018-11-01T14:50:45.971Z,12.60
2018-11-01T14:55:50.681Z,9.25
2018-11-01T15:00:52.898Z,12.40
2018-11-01T15:05:56.350Z,10.25
2018-11-01T15:10:59.814Z,10.00
2018-11-01T15:16:03.395Z,10.75
2018-11-01T15:21:06.864Z,10.00
2018-11-01T15:26:10.346Z,12.25
2018-11-01T15:31:13.802Z,11.00
2018-11-01T15:36:17.387Z,10.00
2018-11-01T15:41:20.866Z,11.40
2018-11-01T15:46:24.379Z,10.75
2018-11-01T15:51:27.834Z,10.20
2018-11-01T15:56:31.307Z,10.00
2018-11-01T16:01:35.229Z,9.75
2018-11-01T16:06:38.916Z,10.40
2018-11-01T16:11:42.922Z,10.00
2018-11-01T16:16:46.379Z,11.50
2018-11-01T16:21:49.858Z,10.40
2018-11-01T16:26:53.355Z,10.00
2018-11-01T16:31:57.522Z,9.75
2018-11-01T16:37:01.061Z,12.50
2018-11-01T16:42:04.472Z,9.25
2018-11-01T16:47:07.990Z,10.50
2018-11-01T16:52:11.437Z,9.00
2018-11-01T16:57:14.867Z,10.25
2018-11-01T17:02:18.371Z,9.50
2018-11-01T17:07:21.852Z,11.60
2018-11-01T17:12:25.354Z,13.00
2018-11-01T17:17:28.794Z,32.80
2018-11-01T17:22:32.280Z,20.50
2018-11-01T17:27:35.746Z,20.20
2018-11-01T17:32:44.562Z,23.25
2018-11-01T17:37:48.028Z,17.80
2018-11-01T17:42:51.494Z,19.00
2018-11-01T17:47:54.992Z,18.80
2018-11-01T17:52:58.438Z,18.00
2018-11-01T17:58:02.028Z,18.40
2018-11-01T18:03:05.541Z,17.25
2018-11-01T18:08:09.005Z,16.50
2018-11-01T18:13:12.597Z,14.25
2018-11-01T18:18:16.045Z,16.00
2018-11-01T18:23:20.176Z,16.25
2018-11-01T18:28:23.613Z,14.00
2018-11-01T18:33:27.074Z,13.00
2018-11-01T18:38:30.569Z,15.00
2018-11-01T18:43:34.058Z,15.60
2018-11-01T18:48:37.592Z,14.00
2018-11-01T18:53:41.146Z,13.20
2018-11-01T18:58:44.613Z,18.50
2018-11-01T19:03:48.099Z,17.50
2018-11-01T19:08:51.546Z,16.00
2018-11-01T19:13:55.246Z,17.00
2018-11-01T19:18:58.483Z,16.00
2018-11-01T19:24:01.934Z,14.40
2018-11-01T19:29:05.453Z,15.75
2018-11-01T19:34:09.047Z,17.40
2018-11-01T19:39:13.051Z,17.00
2018-11-01T19:44:16.554Z,15.00
2018-11-01T19:49:20.100Z,15.20
2018-11-01T19:54:23.706Z,16.75
2018-11-01T19:59:27.128Z,16.40
2018-11-01T20:04:30.894Z,14.25
2018-11-01T20:09:34.546Z,17.00
2018-11-01T20:14:38.303Z,15.60
2018-11-01T20:19:41.842Z,13.75
2018-11-01T20:24:45.250Z,15.00
2018-11-01T20:29:48.800Z,15.50
2018-11-01T20:34:52.961Z,15.20
2018-11-01T20:39:56.522Z,13.75
2018-11-01T20:45:00.032Z,14.00
2018-11-01T20:50:03.570Z,13.25
2018-11-01T20:55:07.173Z,13.20
2018-11-01T21:00:12.681Z,14.67
2018-11-01T21:05:16.172Z,12.00
2018-11-01T21:10:19.675Z,12.00
2018-11-01T21:15:23.154Z,13.60
2018-11-01T21:20:26.714Z,12.00
2018-11-01T21:25:30.190Z,11.00
2018-11-01T21:30:33.662Z,12.40
2018-11-01T21:35:37.132Z,12.50
2018-11-01T21:40:40.608Z,12.00
2018-11-01T21:45:44.141Z,11.00
2018-11-01T21:50:47.684Z,12.00
2018-11-01T21:55:51.243Z,12.20
2018-11-01T22:00:54.691Z,13.00
2018-11-01T22:05:58.182Z,10.40
2018-11-01T22:11:01.641Z,10.00
2018-11-01T22:16:05.439Z,11.75
2018-11-01T22:21:08.998Z,12.75
2018-11-01T22:26:12.511Z,11.00
2018-11-01T22:31:16.058Z,10.00
2018-11-01T22:36:19.583Z,10.00
2018-11-01T22:41:23.506Z,12.00
2018-11-01T22:46:27.167Z,9.00
2018-11-01T22:51:30.740Z,11.00
2018-11-01T22:56:34.340Z,11.25
2018-11-01T23:01:38.065Z,11.00
2018-11-01T23:06:41.584Z,11.00
2018-11-01T23:11:45.063Z,10.50
2018-11-01T23:16:48.541Z,11.00
2018-11-01T23:21:52.070Z,10.75
2018-11-01T23:26:55.823Z,10.75
2018-11-01T23:31:59.307Z,10.00
2018-11-01T23:37:08.053Z,8.80
2018-11-01T23:42:17.003Z,9.00
2018-11-01T23:47:25.943Z,10.00
2018-11-01T23:52:29.559Z,9.75
2018-11-01T23:57:33.028Z,10.00
